createdAt,value
2018-11-04T00:01:56.280Z,10.80
2018-11-04T00:04:24.422Z,9.00
2018-11-04T00:06:52.565Z,10.60
2018-11-04T00:09:20.709Z,10.43
2018-11-04T00:11:48.823Z,10.27
2018-11-04T00:14:16.965Z,10.83
2018-11-04T00:16:45.105Z,11.22
2018-11-04T00:19:13.250Z,11.15
2018-11-04T00:21:41.389Z,9.50
2018-11-04T00:24:09.665Z,8.90
2018-11-04T00:26:37.677Z,10.05
2018-11-04T00:29:05.844Z,10.30
2018-11-04T00:31:33.981Z,10.82
2018-11-04T00:34:02.085Z,8.85
2018-11-04T00:36:30.258Z,10.10
2018-11-04T00:38:58.421Z,10.70
2018-11-04T00:41:26.537Z,9.73
2018-11-04T00:48:53.790Z,9.38
2018-11-04T00:51:21.900Z,10.48
2018-11-04T00:53:50.073Z,10.40
2018-11-04T00:56:18.204Z,10.15
2018-11-04T00:58:46.325Z,9.08
2018-11-04T01:01:14.430Z,8.85
2018-11-04T01:03:43.259Z,9.53
2018-11-04T01:06:11.365Z,10.53
2018-11-04T01:08:39.501Z,9.67
2018-11-04T01:11:07.648Z,9.63
2018-11-04T01:13:35.765Z,10.37
2018-11-04T01:16:03.889Z,9.30
2018-11-04T01:18:32.022Z,9.60
2018-11-04T01:21:00.179Z,9.57
2018-11-04T01:23:28.307Z,8.87
2018-11-04T01:25:56.436Z,8.60
2018-11-04T01:28:24.613Z,9.10
2018-11-04T01:30:52.758Z,8.70
2018-11-04T01:33:20.914Z,7.40
2018-11-04T01:35:49.059Z,8.30
2018-11-04T01:38:17.201Z,9.13
2018-11-04T01:40:45.351Z,8.93
2018-11-04T01:43:13.474Z,8.53
2018-11-04T01:45:41.607Z,8.60
2018-11-04T01:48:09.741Z,7.20
2018-11-04T01:50:37.894Z,8.80
2018-11-04T01:53:06.018Z,7.90
2018-11-04T01:55:34.169Z,8.30
2018-11-04T01:58:02.330Z,8.97
2018-11-04T02:00:30.460Z,8.30
2018-11-04T02:02:58.597Z,8.23
2018-11-04T02:05:26.727Z,8.63
2018-11-04T02:07:54.866Z,9.80
2018-11-04T02:10:23.032Z,8.10
2018-11-04T02:12:51.188Z,10.17
2018-11-04T02:15:19.328Z,9.40
2018-11-04T02:17:47.458Z,7.53
2018-11-04T02:20:15.567Z,8.70
2018-11-04T02:22:43.741Z,8.70
2018-11-04T02:25:13.247Z,8.60
2018-11-04T02:27:42.150Z,8.78
2018-11-04T02:30:12.927Z,9.18
2018-11-04T02:32:41.372Z,8.70
2018-11-04T02:35:09.622Z,9.63
2018-11-04T02:37:37.772Z,8.78
2018-11-04T02:40:05.954Z,10.70
2018-11-04T02:42:34.141Z,8.80
2018-11-04T02:45:02.273Z,11.00
2018-11-04T02:47:30.421Z,10.03
2018-11-04T02:49:58.586Z,11.33
2018-11-04T02:52:26.729Z,10.10
2018-11-04T02:54:54.848Z,11.10
2018-11-04T02:57:23.005Z,11.37
2018-11-04T02:59:51.125Z,10.17
2018-11-04T03:02:19.269Z,11.13
2018-11-04T03:04:47.429Z,12.37
2018-11-04T03:07:15.529Z,10.30
2018-11-04T03:09:43.683Z,12.67
2018-11-04T03:12:11.805Z,13.40
2018-11-04T03:14:39.937Z,11.30
2018-11-04T03:17:08.114Z,12.13
2018-11-04T03:19:36.277Z,13.27
2018-11-04T03:22:04.863Z,12.30
2018-11-04T03:24:33.144Z,12.40
2018-11-04T03:27:01.158Z,12.00
2018-11-04T03:29:29.317Z,14.80
2018-11-04T03:31:57.473Z,11.70
2018-11-04T03:34:25.627Z,13.30
2018-11-04T03:36:53.773Z,13.10
2018-11-04T03:39:21.930Z,12.90
2018-11-04T03:41:50.070Z,13.30
2018-11-04T03:44:18.220Z,14.37
2018-11-04T03:46:46.369Z,12.70
2018-11-04T03:49:14.860Z,13.10
2018-11-04T03:51:42.986Z,13.17
2018-11-04T03:54:11.125Z,13.00
2018-11-04T03:56:39.298Z,14.23
2018-11-04T03:59:07.499Z,12.15
2018-11-04T04:01:35.653Z,13.90
2018-11-04T04:04:03.797Z,13.53
2018-11-04T04:06:31.950Z,12.60
2018-11-04T04:09:00.100Z,13.70
2018-11-04T04:11:28.256Z,14.23
2018-11-04T04:13:56.389Z,15.30
2018-11-04T04:16:24.549Z,12.53
2018-11-04T04:18:52.722Z,14.50
2018-11-04T04:21:21.597Z,13.95
2018-11-04T04:23:49.717Z,13.40
2018-11-04T04:26:17.861Z,14.10
2018-11-04T04:28:45.985Z,14.23
2018-11-04T04:31:14.113Z,12.90
2018-11-04T04:33:42.508Z,13.18
2018-11-04T04:36:10.599Z,12.37
2018-11-04T04:38:38.745Z,12.00
2018-11-04T04:41:07.013Z,13.80
2018-11-04T04:43:35.197Z,13.53
2018-11-04T04:46:03.331Z,13.27
2018-11-04T04:48:31.469Z,13.73
2018-11-04T04:50:59.602Z,14.50
2018-11-04T04:53:27.724Z,13.10
2018-11-04T04:55:57.153Z,13.38
2018-11-04T04:58:25.330Z,13.63
2018-11-04T05:00:54.067Z,13.00
2018-11-04T05:03:22.564Z,12.40
2018-11-04T05:05:50.709Z,14.00
2018-11-04T05:08:18.825Z,13.73
2018-11-04T05:10:46.925Z,13.17
2018-11-04T05:13:15.064Z,11.83
2018-11-04T05:15:43.211Z,12.87
2018-11-04T05:18:11.347Z,13.63
2018-11-04T05:20:39.458Z,12.10
2018-11-04T05:23:07.585Z,12.53
2018-11-04T05:25:35.766Z,12.73
2018-11-04T05:28:03.906Z,14.97
2018-11-04T05:30:32.060Z,15.60
2018-11-04T05:33:00.183Z,13.33
2018-11-04T05:35:28.332Z,13.37
2018-11-04T05:37:56.498Z,14.63
2018-11-04T05:40:24.634Z,14.37
2018-11-04T05:42:52.772Z,13.70
2018-11-04T05:45:20.937Z,14.97
2018-11-04T05:47:49.066Z,14.30
2018-11-04T05:50:17.221Z,16.80
2018-11-04T05:52:45.372Z,16.20
2018-11-04T05:55:13.509Z,14.70
2018-11-04T05:57:41.689Z,16.62
2018-11-04T06:00:10.473Z,15.88
2018-11-04T06:02:38.653Z,16.40
2018-11-04T06:05:07.760Z,16.07
2018-11-04T06:07:35.896Z,16.33
2018-11-04T06:10:04.070Z,16.60
2018-11-04T06:12:32.230Z,15.83
2018-11-04T06:15:00.353Z,17.67
2018-11-04T06:17:28.508Z,18.12
2018-11-04T06:19:56.676Z,16.48
2018-11-04T06:22:24.901Z,16.90
2018-11-04T06:24:53.045Z,17.45
2018-11-04T06:27:21.141Z,18.50
2018-11-04T06:29:49.284Z,18.75
2018-11-04T06:32:17.425Z,16.15
2018-11-04T06:34:45.690Z,19.37
2018-11-04T06:37:13.685Z,19.07
2018-11-04T06:39:41.874Z,19.67
2018-11-04T06:42:10.003Z,19.90
2018-11-04T06:44:38.193Z,20.53
2018-11-04T06:47:07.335Z,19.60
2018-11-04T06:49:35.470Z,18.40
2018-11-04T06:52:03.573Z,19.20
2018-11-04T06:54:31.701Z,19.50
2018-11-04T06:56:59.845Z,19.03
2018-11-04T06:59:28.004Z,18.13
2018-11-04T07:01:56.133Z,22.50
2018-11-04T07:04:25.596Z,21.80
2018-11-04T07:06:53.728Z,19.73
2018-11-04T07:09:21.917Z,19.67
2018-11-04T07:11:50.424Z,21.13
2018-11-04T07:14:19.133Z,20.60
2018-11-04T07:16:47.274Z,20.87
2018-11-04T07:19:15.895Z,20.77
2018-11-04T07:21:44.046Z,19.00
2018-11-04T07:24:12.233Z,20.57
2018-11-04T07:26:40.399Z,19.70
2018-11-04T07:29:09.437Z,19.97
2018-11-04T07:31:37.576Z,21.17
2018-11-04T07:34:06.141Z,21.60
2018-11-04T07:36:34.489Z,20.40
2018-11-04T07:39:02.618Z,22.07
2018-11-04T07:41:30.794Z,23.50
2018-11-04T07:43:58.934Z,22.50
2018-11-04T07:46:27.073Z,21.42
2018-11-04T07:48:55.255Z,25.17
2018-11-04T07:51:23.405Z,23.45
2018-11-04T07:53:51.587Z,23.25
2018-11-04T07:56:19.685Z,22.80
2018-11-04T07:58:47.832Z,24.00
2018-11-04T08:01:15.996Z,27.27
2018-11-04T08:03:44.136Z,27.66
2018-11-04T08:06:12.289Z,25.97
2018-11-04T08:08:40.416Z,31.93
2018-11-04T08:11:08.558Z,28.50
2018-11-04T08:13:36.752Z,25.92
2018-11-04T08:16:05.079Z,29.27
2018-11-04T08:18:33.228Z,30.08
2018-11-04T08:21:01.365Z,28.47
2018-11-04T08:23:29.497Z,26.93
2018-11-04T08:25:57.613Z,30.40
2018-11-04T08:28:25.754Z,28.93
2018-11-04T08:30:53.888Z,29.30
2018-11-04T08:33:22.026Z,29.20
2018-11-04T08:35:50.203Z,31.30
2018-11-04T08:38:18.317Z,29.47
2018-11-04T08:40:46.550Z,29.63
2018-11-04T08:43:14.678Z,30.43
2018-11-04T08:45:42.859Z,32.70
2018-11-04T08:48:10.951Z,32.50
2018-11-04T08:50:39.077Z,34.50
2018-11-04T08:53:07.269Z,32.10
2018-11-04T08:55:35.371Z,30.03
2018-11-04T08:58:03.519Z,34.10
2018-11-04T09:00:31.638Z,34.30
2018-11-04T09:02:59.781Z,30.77
2018-11-04T09:05:27.899Z,31.33
2018-11-04T09:07:56.049Z,34.20
2018-11-04T09:10:24.178Z,34.83
2018-11-04T09:12:52.312Z,35.63
2018-11-04T09:15:20.422Z,36.33
2018-11-04T09:17:48.600Z,33.30
2018-11-04T09:20:17.413Z,34.90
2018-11-04T09:22:45.581Z,36.20
2018-11-04T09:25:14.061Z,31.65
2018-11-04T09:27:42.217Z,35.70
2018-11-04T09:30:12.883Z,30.80
2018-11-04T09:32:41.037Z,35.00
2018-11-04T09:35:10.152Z,32.90
2018-11-04T09:37:37.977Z,33.75
2018-11-04T09:40:07.438Z,35.10
2018-11-04T09:42:35.629Z,35.50
2018-11-04T09:45:03.778Z,37.80
2018-11-04T09:47:31.994Z,34.80
2018-11-04T09:50:00.228Z,35.17
2018-11-04T09:52:28.321Z,33.30
2018-11-04T09:54:56.433Z,32.03
2018-11-04T09:57:24.613Z,31.97
2018-11-04T09:59:52.781Z,30.27
2018-11-04T10:02:20.921Z,32.63
2018-11-04T10:04:49.070Z,36.90
2018-11-04T10:07:17.289Z,34.83
2018-11-04T10:09:45.424Z,30.10
2018-11-04T10:12:13.565Z,29.98
2018-11-04T10:14:41.714Z,33.70
2018-11-04T10:17:09.842Z,33.45
2018-11-04T10:19:38.070Z,33.90
2018-11-04T10:22:06.160Z,30.77
2018-11-04T10:24:34.283Z,31.40
2018-11-04T10:27:02.418Z,32.00
2018-11-04T10:29:30.533Z,30.40
2018-11-04T10:31:58.672Z,29.97
2018-11-04T10:34:26.829Z,32.70
2018-11-04T10:36:54.979Z,30.97
2018-11-04T10:39:23.097Z,32.13
2018-11-04T10:41:51.231Z,28.70
2018-11-04T10:44:19.376Z,30.07
2018-11-04T10:46:47.526Z,32.23
2018-11-04T10:49:15.673Z,30.83
2018-11-04T10:51:43.798Z,27.40
2018-11-04T10:54:11.965Z,27.95
2018-11-04T10:56:40.110Z,29.83
2018-11-04T10:59:08.276Z,28.20
2018-11-04T11:01:36.471Z,29.00
2018-11-04T11:04:04.741Z,29.10
2018-11-04T11:06:32.879Z,28.60
2018-11-04T11:09:01.058Z,29.70
2018-11-04T11:11:29.241Z,28.95
2018-11-04T11:13:57.384Z,27.20
2018-11-04T11:16:25.530Z,28.87
2018-11-04T11:18:53.675Z,29.80
2018-11-04T11:21:21.811Z,31.40
2018-11-04T11:23:49.941Z,29.10
2018-11-04T11:26:18.127Z,29.37
2018-11-04T11:28:46.263Z,31.00
2018-11-04T11:31:14.401Z,28.55
2018-11-04T11:33:42.781Z,29.65
2018-11-04T11:36:10.909Z,29.60
2018-11-04T11:38:39.078Z,27.97
2018-11-04T11:41:07.195Z,29.17
2018-11-04T11:43:35.341Z,32.20
2018-11-04T11:46:03.480Z,28.70
2018-11-04T11:48:31.640Z,31.80
2018-11-04T11:50:59.737Z,29.37
2018-11-04T11:53:27.885Z,29.80
2018-11-04T11:55:56.042Z,30.70
2018-11-04T11:58:24.198Z,30.20
2018-11-04T12:00:52.582Z,28.23
2018-11-04T12:03:20.715Z,28.50
2018-11-04T12:05:48.847Z,29.67
2018-11-04T12:08:16.993Z,28.30
2018-11-04T12:10:45.161Z,27.87
2018-11-04T12:13:13.318Z,27.27
2018-11-04T12:15:41.483Z,29.55
2018-11-04T12:18:09.669Z,27.60
2018-11-04T12:20:38.007Z,28.90
2018-11-04T12:23:06.147Z,29.67
2018-11-04T12:25:34.364Z,29.73
2018-11-04T12:28:02.565Z,26.52
2018-11-04T12:30:30.733Z,26.68
2018-11-04T12:32:58.877Z,27.60
2018-11-04T12:35:27.228Z,28.10
2018-11-04T12:37:55.227Z,26.70
2018-11-04T12:40:23.393Z,27.77
2018-11-04T12:42:51.574Z,27.25
2018-11-04T12:45:19.716Z,28.30
2018-11-04T12:47:47.885Z,27.83
2018-11-04T12:50:16.056Z,26.40
2018-11-04T12:52:44.240Z,28.62
2018-11-04T12:55:12.420Z,25.53
2018-11-04T12:57:40.660Z,28.13
2018-11-04T13:00:11.435Z,25.53
2018-11-04T13:02:39.728Z,26.82
2018-11-04T13:05:08.904Z,29.17
2018-11-04T13:07:37.073Z,29.02
2018-11-04T13:10:06.795Z,27.90
2018-11-04T13:12:34.962Z,27.37
2018-11-04T13:15:03.122Z,27.63
2018-11-04T13:17:31.349Z,27.62
2018-11-04T13:19:59.520Z,27.25
2018-11-04T13:22:27.889Z,25.90
2018-11-04T13:24:56.065Z,28.40
2018-11-04T13:27:24.219Z,28.83
2018-11-04T13:29:52.429Z,27.83
2018-11-04T13:32:20.575Z,28.30
2018-11-04T13:34:48.784Z,27.07
2018-11-04T13:37:16.933Z,27.17
2018-11-04T13:39:45.098Z,28.13
2018-11-04T13:42:13.274Z,28.27
2018-11-04T13:44:41.371Z,29.40
2018-11-04T13:47:09.510Z,27.50
2018-11-04T13:49:37.617Z,29.77
2018-11-04T13:52:05.765Z,30.97
2018-11-04T13:54:34.106Z,28.23
2018-11-04T13:57:02.284Z,29.42
2018-11-04T13:59:30.446Z,29.65
2018-11-04T14:01:58.590Z,29.27
2018-11-04T14:04:26.734Z,30.47
2018-11-04T14:06:54.902Z,30.48
2018-11-04T14:09:23.064Z,32.10
2018-11-04T14:11:51.191Z,29.63
2018-11-04T14:14:19.339Z,30.27
2018-11-04T14:16:47.486Z,30.40
2018-11-04T14:19:15.649Z,28.57
2018-11-04T14:21:43.858Z,32.08
2018-11-04T14:24:12.024Z,31.55
2018-11-04T14:26:40.193Z,30.55
2018-11-04T14:29:08.345Z,32.58
2018-11-04T14:31:36.547Z,30.60
2018-11-04T14:34:04.842Z,31.33
2018-11-04T14:36:33.019Z,30.77
2018-11-04T14:39:01.225Z,31.53
2018-11-04T14:41:29.448Z,32.10
2018-11-04T14:43:57.622Z,30.60
2018-11-04T14:46:25.790Z,31.63
2018-11-04T14:48:53.961Z,29.20
2018-11-04T14:51:22.097Z,30.67
2018-11-04T14:53:51.424Z,30.23
2018-11-04T14:56:22.770Z,33.27
2018-11-04T14:58:51.065Z,30.13
2018-11-04T15:01:19.401Z,31.00
2018-11-04T15:03:47.530Z,32.12
2018-11-04T15:06:15.745Z,31.07
2018-11-04T15:08:43.976Z,27.63
2018-11-04T15:11:12.133Z,28.40
2018-11-04T15:13:41.465Z,30.02
2018-11-04T15:16:09.617Z,30.10
2018-11-04T15:18:37.956Z,31.27
2018-11-04T15:21:06.103Z,29.20
2018-11-04T15:23:34.230Z,28.63
2018-11-04T15:26:02.456Z,32.03
2018-11-04T15:28:30.606Z,28.93
2018-11-04T15:30:58.797Z,30.93
2018-11-04T15:33:26.995Z,30.47
2018-11-04T15:35:55.102Z,30.30
2018-11-04T15:38:23.320Z,30.25
2018-11-04T15:40:51.468Z,29.00
2018-11-04T15:43:19.717Z,31.12
2018-11-04T15:45:47.922Z,29.63
2018-11-04T15:53:15.961Z,28.10
2018-11-04T15:55:44.200Z,29.17
2018-11-04T15:58:12.418Z,30.40
2018-11-04T16:00:40.590Z,31.00
2018-11-04T16:03:08.729Z,28.23
2018-11-04T16:05:36.989Z,29.95
2018-11-04T16:08:05.967Z,28.98
2018-11-04T16:10:34.231Z,30.10
2018-11-04T16:13:02.473Z,30.17
2018-11-04T16:15:30.725Z,30.10
2018-11-04T16:17:58.939Z,30.53
2018-11-04T16:20:27.059Z,28.67
2018-11-04T16:22:55.259Z,30.00
2018-11-04T16:25:23.454Z,30.80
2018-11-04T16:27:51.653Z,30.30
2018-11-04T16:30:19.885Z,28.53
2018-11-04T16:32:48.290Z,31.50
2018-11-04T16:35:16.452Z,30.47
2018-11-04T16:37:45.390Z,31.60
2018-11-04T16:40:13.482Z,28.83
2018-11-04T16:42:41.617Z,31.42
2018-11-04T16:45:12.343Z,29.85
2018-11-04T16:47:40.790Z,31.93
2018-11-04T16:50:09.894Z,30.25
2018-11-04T16:52:38.030Z,31.07
2018-11-04T16:55:06.939Z,30.00
2018-11-04T16:57:35.093Z,30.60
2018-11-04T17:00:03.237Z,32.03
2018-11-04T17:02:31.485Z,34.73
2018-11-04T17:04:59.826Z,34.70
2018-11-04T17:07:28.062Z,34.70
2018-11-04T17:09:56.359Z,33.37
2018-11-04T17:12:24.541Z,35.60
2018-11-04T17:14:52.791Z,33.67
2018-11-04T17:17:21.110Z,37.07
2018-11-04T17:19:49.306Z,36.93
2018-11-04T17:22:17.519Z,34.70
2018-11-04T17:24:45.674Z,38.17
2018-11-04T17:27:13.841Z,38.27
2018-11-04T17:29:42.119Z,35.73
2018-11-04T17:32:10.326Z,41.47
2018-11-04T17:34:38.562Z,40.17
2018-11-04T17:37:07.985Z,39.08
2018-11-04T17:39:36.274Z,38.45
2018-11-04T17:42:04.743Z,43.87
2018-11-04T17:44:33.077Z,44.97
2018-11-04T17:47:01.200Z,43.92
2018-11-04T17:49:29.353Z,39.20
2018-11-04T17:51:57.513Z,42.27
2018-11-04T17:54:25.690Z,40.90
2018-11-04T17:56:54.041Z,41.17
2018-11-04T17:59:22.205Z,42.80
2018-11-04T18:01:50.366Z,40.57
2018-11-04T18:04:18.510Z,40.33
2018-11-04T18:06:46.689Z,41.27
2018-11-04T18:09:14.837Z,42.07
2018-11-04T18:11:43.017Z,42.83
2018-11-04T18:14:11.183Z,45.80
2018-11-04T18:16:39.405Z,41.75
2018-11-04T18:19:07.587Z,42.05
2018-11-04T18:21:35.928Z,42.55
2018-11-04T18:24:04.126Z,44.17
2018-11-04T18:26:32.309Z,45.77
2018-11-04T18:29:00.399Z,41.67
2018-11-04T18:31:28.558Z,42.93
2018-11-04T18:38:56.675Z,42.45
2018-11-04T18:41:24.848Z,42.00
2018-11-04T18:43:54.421Z,43.68
2018-11-04T18:46:22.309Z,48.37
2018-11-04T18:48:50.462Z,47.40
2018-11-04T18:51:18.581Z,44.60
2018-11-04T18:53:46.769Z,43.90
2018-11-04T18:56:15.063Z,49.77
2018-11-04T18:58:43.182Z,44.70
2018-11-04T19:01:11.313Z,48.00
2018-11-04T19:03:40.337Z,44.88
2018-11-04T19:06:08.502Z,43.97
2018-11-04T19:08:36.613Z,46.90
2018-11-04T19:11:05.105Z,44.00
2018-11-04T19:13:33.252Z,48.50
2018-11-04T19:16:01.401Z,45.45
2018-11-04T19:18:29.590Z,45.33
2018-11-04T19:20:57.749Z,44.93
2018-11-04T19:23:26.336Z,44.85
2018-11-04T19:25:54.510Z,47.40
2018-11-04T19:28:23.366Z,44.00
2018-11-04T19:30:51.616Z,48.08
2018-11-04T19:33:19.855Z,47.98
2018-11-04T19:35:47.997Z,44.65
2018-11-04T19:38:16.123Z,43.85
2018-11-04T19:40:44.313Z,43.40
2018-11-04T19:43:12.565Z,44.88
2018-11-04T19:45:40.596Z,46.50
2018-11-04T19:48:08.749Z,43.00
2018-11-04T19:50:36.870Z,42.93
2018-11-04T19:53:05.043Z,46.80
2018-11-04T19:55:33.152Z,46.10
2018-11-04T19:58:01.300Z,47.80
2018-11-04T20:00:29.500Z,45.00
2018-11-04T20:02:57.689Z,46.27
2018-11-04T20:05:25.887Z,48.77
2018-11-04T20:07:53.957Z,46.00
2018-11-04T20:10:22.121Z,48.43
2018-11-04T20:12:55.657Z,46.97
2018-11-04T20:15:23.817Z,47.53
2018-11-04T20:17:51.971Z,50.00
2018-11-04T20:20:24.597Z,47.67
2018-11-04T20:22:52.713Z,49.70
2018-11-04T20:25:26.354Z,52.77
2018-11-04T20:27:54.459Z,49.50
2018-11-04T20:30:22.587Z,50.03
2018-11-04T20:32:56.049Z,48.13
2018-11-04T20:35:24.185Z,47.00
2018-11-04T20:37:52.364Z,50.00
2018-11-04T20:40:25.968Z,51.73
2018-11-04T20:42:54.128Z,43.33
2018-11-04T20:45:22.291Z,50.70
2018-11-04T20:47:55.701Z,49.23
2018-11-04T20:50:29.224Z,50.00
2018-11-04T20:52:57.404Z,48.53
2018-11-04T20:55:29.717Z,51.97
2018-11-04T20:57:58.592Z,51.13
2018-11-04T21:00:26.800Z,49.70
2018-11-04T21:02:55.260Z,52.17
2018-11-04T21:05:23.441Z,52.95
2018-11-04T21:07:51.819Z,53.87
2018-11-04T21:10:19.975Z,52.83
2018-11-04T21:12:48.147Z,50.47
2018-11-04T21:15:16.313Z,52.23
2018-11-04T21:17:44.466Z,54.47
2018-11-04T21:20:12.641Z,49.90
2018-11-04T21:22:40.776Z,53.10
2018-11-04T21:25:09.004Z,51.03
2018-11-04T21:27:37.114Z,52.30
2018-11-04T21:30:07.921Z,54.90
2018-11-04T21:32:36.207Z,51.18
2018-11-04T21:35:04.462Z,48.63
2018-11-04T21:37:32.661Z,50.90
2018-11-04T21:40:00.822Z,52.37
2018-11-04T21:42:29.138Z,48.93
2018-11-04T21:44:57.177Z,54.50
2018-11-04T21:47:25.313Z,51.30
2018-11-04T21:49:53.458Z,49.47
2018-11-04T21:52:21.595Z,53.03
2018-11-04T21:54:49.729Z,52.60
2018-11-04T21:57:17.889Z,51.80
2018-11-04T21:59:46.009Z,52.00
2018-11-04T22:02:14.203Z,51.87
2018-11-04T22:04:42.347Z,51.37
2018-11-04T22:07:10.469Z,51.07
2018-11-04T22:09:38.660Z,52.70
2018-11-04T22:12:06.816Z,54.53
2018-11-04T22:14:34.930Z,55.33
2018-11-04T22:17:03.110Z,52.93
2018-11-04T22:19:31.249Z,52.60
2018-11-04T22:21:59.410Z,52.40
2018-11-04T22:24:27.590Z,53.43
2018-11-04T22:26:55.741Z,57.57
2018-11-04T22:29:23.867Z,53.60
2018-11-04T22:31:52.013Z,54.58
2018-11-04T22:34:20.156Z,51.42
2018-11-04T22:36:48.310Z,57.30
2018-11-04T22:39:16.529Z,51.42
2018-11-04T22:41:44.665Z,51.48
2018-11-04T22:44:12.870Z,56.30
2018-11-04T22:46:41.460Z,52.40
2018-11-04T22:49:09.849Z,56.05
2018-11-04T22:51:38.223Z,52.78
2018-11-04T22:54:06.369Z,58.70
2018-11-04T22:56:34.556Z,54.35
2018-11-04T22:59:02.673Z,52.78
2018-11-04T23:01:30.857Z,51.68
2018-11-04T23:03:59.004Z,52.48
2018-11-04T23:06:27.825Z,56.20
2018-11-04T23:08:55.999Z,54.83
2018-11-04T23:11:24.141Z,54.30
2018-11-04T23:13:52.284Z,52.97
2018-11-04T23:16:20.458Z,54.73
2018-11-04T23:18:48.722Z,55.30
2018-11-04T23:21:16.814Z,51.53
2018-11-04T23:23:44.948Z,54.27
2018-11-04T23:26:13.079Z,51.67
2018-11-04T23:28:41.235Z,54.20
2018-11-04T23:31:09.397Z,52.80
2018-11-04T23:33:37.598Z,51.50
2018-11-04T23:36:05.787Z,51.90
2018-11-04T23:38:33.947Z,51.03
2018-11-04T23:41:02.073Z,52.57
2018-11-04T23:43:30.225Z,53.77
2018-11-04T23:45:58.382Z,50.50
2018-11-04T23:48:26.568Z,51.33
2018-11-04T23:50:54.697Z,49.93
2018-11-04T23:53:22.841Z,52.93
2018-11-04T23:55:50.977Z,54.00
2018-11-04T23:58:19.166Z,53.27
